Home PIREPS Pireps

Flight BEL968

  • Submitted By: Roberto Zagarella
  • Departure Airport: Bruxelles National (EBBR)
  • Arrival Airport: Kastrup (EKCH)
  • Aircraft: A330-223 (OO-SFY)
  • Flight Time: 01.25
  • Date Submitted: 14/12/2017
  • Route: NIK UM624 TOLEN UN873 EKROS/NO453F320 UN873 SPY/NO446F310 UN873 JUIST UP729 DOSUR P729 TUDLO
  • Status: Accepted
Flight Details
Gross Revenue:
(210 load / € 0.00 per unit
€ 0.00
Fuel Cost:
(9087 fuel used @ 0 / unit)
€ 0.00

Additional Log Information:

View Log

Aircraft Used in flight is Airbus A330-223 PW Brussels Airlines 'OO-SFU' To
12:44 Brakes are On
12:47 Brakes are Released
12:48 Brakes are On
12:49 Brakes are Released
12:55 You Took off @ 161 Knots and Flaps at Position 3
Departure Weather
EBBR 141120Z 22016KT 9999 BKN015 04/01 Q0994 TEMPO 22020G35KTrn
12:55 Landing Gear Up @ 169 Knots and 250 Feet
13:49 Below 10000 feet you are not allowed to go over 250 knots
13:50 Below FL100 you need to turn on the landing lights
14:04 Landing Gear Down @ 182 Knots and 2840 Feet
14:09 You Landed @ 133 Knots and with -900 Vertical Speed
Arrival Weather
EKCH 141250Z 25018KT 9999 SCT019 BKN026 05/02 Q0981 NOSIGrn
14:09 Your Landing was very hard
14:09 Paused
14:11 Brakes are On
14:11 Unpaused
14:12 Brussels Bel-Track1.0.1.2

Route Map

Corporate About Us Our Team Vacancies Information Fleet Route Network Rules and Regulations Operations Flight Schedules Event Center Tours Partners IVAO Vatsim Acars dev FSCB

fb Users Online Belgium Bart Dammans, Belgium Jan Roscam,
3 Pilot(s) and 100 Guest(s) Online
CMS by phpVMS - Design by Crazycreatives.com - Copyright © 2018 - Brussels Airlines Virtual